Airfield :
LOGIN :

Register | Disclaimer

   EN    FR    IT 

 










Legend :    VFR   Marginal VFR   IFR   Intensive IFR   Very Intensive IFR
Visi :
Ceiling :
>= 8 km
>= 3000ft
5 to 8 km
1000 to 3000 ft
1500m to 5 km
500 to 1000 ft
800 to 1500m
200 to 500 ft
< 800m
< 200 ft
Symbols :   Thunderstorms  Fog  Heavy snow  Heavy precipitations  Wind > 20 kt
SIGMETs :     Misc.  Thunderstorms  Icing  Turbulence  Mountain Waves  Volcanic Ashes






- Airport Elevation : 97 ft
- IATA code : EBJ


EKEB - Esbjerg

CURRENT METAR :
  • 291850Z AUTO 22021KT 9999 OVC013/// 06/04 Q1008

EXPIRED METARs :
  • 291820Z AUTO 21018KT 9999 BKN014/// BKN053/// 06/04 Q1008
  • 291750Z AUTO 21018KT 9999 SCT015/// BKN054/// BKN120/// 06/04 Q1009
  • 291720Z AUTO 21018KT 9999 FEW016/// BKN060/// BKN120/// 06/04 Q1009
  • 291650Z AUTO 21018KT 9999 BKN094/// BKN130/// 06/04 Q1010
  • 291620Z AUTO 21016KT 9999 FEW017/// SCT028/// SCT096/// BKN130/// 06/04 Q1011

TAF TAF EKEB
Valid from the 29 at 15:00 until the 29 at 20:00 UTC


291401Z 2915/2920 24015KT 9999 SCT012 BKN020
TEMPO 2915/2918 25017G27KT BKN012
TEMPO 2918/2920 25018G32KT BKN008



MET'MAP, your aeronautical weather chart ! - Copyright ORBIFLY December 2007 - Disclaimer

ORBIFLY MET'MAP TEAM :

Programming & Development : Alexandra Zaïnal
Original concept : Baudouin d'Aumeries
Technical & hardware support : Manuel Goepfert
Assistance : Marc-Olivier Méhu




SOURCES & CREDITS :

   NOAA